This is the latest recevied weather packets stored in our database for station/object KM4FZA. If no packets are shown the sender has not sent any weather packets the latest 10 day(s).
| Time | Temp. | Humidity | Pressure | Rain* | Wind** | Luminosity | Snow |
|---|---|---|---|---|---|---|---|
| 1777324526 | 22.78° C | 37% | 1023.8 hPa | 0 mm | - | - | - |
| 1777323319 | 22.78° C | 36% | 1023.8 hPa | 0 mm | - | - | - |
| 1777318527 | 22.78° C | 37% | 1024.7 hPa | 0 mm | - | - | - |
| 1777317320 | 22.22° C | 38% | 1024.7 hPa | 0 mm | - | - | - |
| 1777316725 | 21.67° C | 39% | 1024.9 hPa | 0 mm | - | - | - |
| 1777313122 | 21.67° C | 38% | 1025.4 hPa | 0 mm | - | - | - |
| 1777307123 | 18.89° C | 42% | 1026.3 hPa | 0 mm | - | - | - |
| 1777304727 | 17.78° C | 48% | 1026.5 hPa | 0 mm | - | - | - |
| 1777303520 | 17.78° C | 49% | 1026.7 hPa | 0 mm | - | - | - |
| 1777300530 | 15.56° C | 58% | 1026.9 hPa | 0 mm | - | - | - |
| 1777294552 | 13.33° C | 70% | 1026.7 hPa | 0 mm | - | - | - |
| 1777287919 | 10.56° C | 79% | 1026.1 hPa | 0 mm | - | - | - |
| 1777281921 | 10.56° C | 79% | 1024.8 hPa | 0 mm | - | - | - |
| 1777278338 | 10.56° C | 77% | 1024.7 hPa | 0 mm | - | - | - |
| 1777277723 | 10.56° C | 77% | 1024.6 hPa | 0 mm | - | - | - |
| 1777268726 | 11.11° C | 73% | 1024.7 hPa | 0 mm | - | - | - |
| 1777264517 | 12.22° C | 75% | 1023.9 hPa | 0 mm | - | - | - |
| 1777262736 | 12.78° C | 73% | 1023.7 hPa | 0 mm | - | - | - |
| 1777257917 | 13.33° C | 74% | 1022.7 hPa | 0 mm | - | - | - |
| 1777249528 | 14.44° C | 74% | 1020.3 hPa | 0 mm | - | - | - |
| 1777247132 | 16.11° C | 67% | 1019.7 hPa | 0 mm | - | - | - |
| 1777246560 | 16.67° C | 65% | 1019.7 hPa | 0 mm | - | - | - |
| 1777245331 | 17.22° C | 63% | 1019.6 hPa | 0 mm | - | - | - |
| 1777244738 | 17.78° C | 61% | 1019.4 hPa | 0 mm | - | - | - |
| 1777238719 | 20° C | 58% | 1018.7 hPa | 0 mm | - | - | - |
* Rain latest hour (hover to see other rain measurements)
** Current wind speed in m/s (hover to see current wind gust speed)